sensor_id;sensor_type;location;lat;lon;timestamp;pressure;altitude;pressure_sealevel;temperature;humidity
77351;BME280;66420;50.246;14.320;2023-07-28T00:01:53;98701.59;;;16.61;93.61
77351;BME280;66420;50.246;14.320;2023-07-28T00:04:38;98701.59;;;16.61;92.32
77351;BME280;66420;50.246;14.320;2023-07-28T00:07:23;98700.06;;;16.63;92.93
77351;BME280;66420;50.246;14.320;2023-07-28T00:10:07;98699.72;;;16.68;92.60
77351;BME280;66420;50.246;14.320;2023-07-28T00:12:52;98701.34;;;16.69;92.10
77351;BME280;66420;50.246;14.320;2023-07-28T00:15:37;98698.22;;;16.71;91.77
77351;BME280;66420;50.246;14.320;2023-07-28T00:18:21;98698.72;;;16.76;91.79
77351;BME280;66420;50.246;14.320;2023-07-28T00:21:06;98693.91;;;16.73;91.98
77351;BME280;66420;50.246;14.320;2023-07-28T00:23:51;98694.28;;;16.72;92.59
77351;BME280;66420;50.246;14.320;2023-07-28T00:26:36;98697.84;;;16.72;92.52
77351;BME280;66420;50.246;14.320;2023-07-28T00:29:21;98691.94;;;16.74;91.57
77351;BME280;66420;50.246;14.320;2023-07-28T00:32:06;98699.06;;;16.75;92.38
77351;BME280;66420;50.246;14.320;2023-07-28T00:34:51;98694.38;;;16.79;92.16
77351;BME280;66420;50.246;14.320;2023-07-28T00:37:36;98694.03;;;16.80;92.10
77351;BME280;66420;50.246;14.320;2023-07-28T00:40:22;98686.94;;;16.83;92.43
77351;BME280;66420;50.246;14.320;2023-07-28T00:43:07;98683.38;;;16.82;92.05
77351;BME280;66420;50.246;14.320;2023-07-28T00:45:52;98680.63;;;16.82;92.42
77351;BME280;66420;50.246;14.320;2023-07-28T00:48:37;98677.84;;;16.82;92.78
77351;BME280;66420;50.246;14.320;2023-07-28T00:51:23;98682.22;;;16.83;92.56
77351;BME280;66420;50.246;14.320;2023-07-28T00:54:09;98683.38;;;16.82;92.43
77351;BME280;66420;50.246;14.320;2023-07-28T00:56:55;98685.84;;;16.88;92.29
77351;BME280;66420;50.246;14.320;2023-07-28T00:59:40;98681.91;;;16.89;93.17
77351;BME280;66420;50.246;14.320;2023-07-28T01:02:25;98672.78;;;16.84;93.11
77351;BME280;66420;50.246;14.320;2023-07-28T01:05:10;98684.22;;;16.87;92.79
77351;BME280;66420;50.246;14.320;2023-07-28T01:08:06;98675.94;;;16.87;93.33
77351;BME280;66420;50.246;14.320;2023-07-28T01:10:55;98665.66;;;16.83;94.07
77351;BME280;66420;50.246;14.320;2023-07-28T01:13:40;98669.16;;;16.80;94.03
77351;BME280;66420;50.246;14.320;2023-07-28T01:16:25;98663.63;;;16.80;94.58
77351;BME280;66420;50.246;14.320;2023-07-28T01:19:11;98663.16;;;16.75;95.56
77351;BME280;66420;50.246;14.320;2023-07-28T01:27:44;98657.56;;;16.71;96.22
77351;BME280;66420;50.246;14.320;2023-07-28T01:30:29;98663.09;;;16.71;95.91
77351;BME280;66420;50.246;14.320;2023-07-28T01:33:14;98655.16;;;16.70;96.58
77351;BME280;66420;50.246;14.320;2023-07-28T01:36:00;98650.75;;;16.65;98.07
77351;BME280;66420;50.246;14.320;2023-07-28T01:38:45;98659.34;;;16.60;98.95
77351;BME280;66420;50.246;14.320;2023-07-28T01:41:30;98643.81;;;16.52;99.92
77351;BME280;66420;50.246;14.320;2023-07-28T01:44:15;98646.94;;;16.51;99.57
77351;BME280;66420;50.246;14.320;2023-07-28T01:47:00;98650.09;;;16.49;100.00
77351;BME280;66420;50.246;14.320;2023-07-28T01:49:44;98656.75;;;16.48;100.00
77351;BME280;66420;50.246;14.320;2023-07-28T01:52:29;98663.44;;;16.47;100.00
77351;BME280;66420;50.246;14.320;2023-07-28T01:55:14;98653.94;;;16.45;100.00
77351;BME280;66420;50.246;14.320;2023-07-28T01:58:00;98658.69;;;16.44;100.00
77351;BME280;66420;50.246;14.320;2023-07-28T02:00:45;98648.00;;;16.42;100.00
77351;BME280;66420;50.246;14.320;2023-07-28T02:03:31;98651.56;;;16.43;100.00
77351;BME280;66420;50.246;14.320;2023-07-28T02:06:15;98642.81;;;16.41;100.00
77351;BME280;66420;50.246;14.320;2023-07-28T02:09:00;98653.88;;;16.41;100.00
77351;BME280;66420;50.246;14.320;2023-07-28T02:11:45;98651.09;;;16.41;100.00
77351;BME280;66420;50.246;14.320;2023-07-28T02:14:30;98657.06;;;16.43;100.00
77351;BME280;66420;50.246;14.320;2023-07-28T02:17:14;98654.66;;;16.41;100.00
77351;BME280;66420;50.246;14.320;2023-07-28T02:19:59;98646.78;;;16.40;100.00
77351;BME280;66420;50.246;14.320;2023-07-28T02:22:44;98638.78;;;16.35;100.00
77351;BME280;66420;50.246;14.320;2023-07-28T02:25:29;98635.59;;;16.33;100.00
77351;BME280;66420;50.246;14.320;2023-07-28T02:28:14;98629.66;;;16.31;100.00
77351;BME280;66420;50.246;14.320;2023-07-28T02:30:58;98637.19;;;16.34;100.00
77351;BME280;66420;50.246;14.320;2023-07-28T02:33:43;98643.16;;;16.36;100.00
77351;BME280;66420;50.246;14.320;2023-07-28T02:36:28;98639.50;;;16.32;100.00
77351;BME280;66420;50.246;14.320;2023-07-28T02:39:13;98643.53;;;16.34;100.00
77351;BME280;66420;50.246;14.320;2023-07-28T02:41:57;98642.72;;;16.34;100.00
77351;BME280;66420;50.246;14.320;2023-07-28T02:44:42;98636.41;;;16.33;100.00
77351;BME280;66420;50.246;14.320;2023-07-28T02:47:27;98640.31;;;16.32;100.00
77351;BME280;66420;50.246;14.320;2023-07-28T02:50:12;98637.94;;;16.31;100.00
77351;BME280;66420;50.246;14.320;2023-07-28T02:52:57;98637.84;;;16.27;100.00
77351;BME280;66420;50.246;14.320;2023-07-28T02:55:43;98634.28;;;16.27;100.00
77351;BME280;66420;50.246;14.320;2023-07-28T02:58:28;98646.53;;;16.26;100.00
77351;BME280;66420;50.246;14.320;2023-07-28T03:01:12;98641.72;;;16.23;100.00
77351;BME280;66420;50.246;14.320;2023-07-28T03:03:59;98629.16;;;16.25;100.00
77351;BME280;66420;50.246;14.320;2023-07-28T03:06:43;98632.28;;;16.24;100.00
77351;BME280;66420;50.246;14.320;2023-07-28T03:09:28;98640.88;;;16.19;100.00
77351;BME280;66420;50.246;14.320;2023-07-28T03:12:13;98635.34;;;16.19;100.00
77351;BME280;66420;50.246;14.320;2023-07-28T03:14:58;98639.25;;;16.18;100.00
77351;BME280;66420;50.246;14.320;2023-07-28T03:17:42;98638.09;;;16.19;100.00
77351;BME280;66420;50.246;14.320;2023-07-28T03:20:27;98638.91;;;16.19;100.00
77351;BME280;66420;50.246;14.320;2023-07-28T03:23:12;98634.63;;;16.22;100.00
77351;BME280;66420;50.246;14.320;2023-07-28T03:25:57;98636.94;;;16.20;100.00
77351;BME280;66420;50.246;14.320;2023-07-28T03:28:41;98634.63;;;16.22;100.00
77351;BME280;66420;50.246;14.320;2023-07-28T03:31:26;98637.00;;;16.23;100.00
77351;BME280;66420;50.246;14.320;2023-07-28T03:34:10;98625.91;;;16.20;100.00
77351;BME280;66420;50.246;14.320;2023-07-28T03:36:55;98630.63;;;16.19;100.00
77351;BME280;66420;50.246;14.320;2023-07-28T03:39:40;98633.03;;;16.21;100.00
77351;BME280;66420;50.246;14.320;2023-07-28T03:42:25;98637.38;;;16.22;100.00
77351;BME280;66420;50.246;14.320;2023-07-28T03:45:10;98640.16;;;16.22;100.00
77351;BME280;66420;50.246;14.320;2023-07-28T03:47:54;98637.81;;;16.24;100.00
77351;BME280;66420;50.246;14.320;2023-07-28T03:50:39;98646.53;;;16.26;100.00
77351;BME280;66420;50.246;14.320;2023-07-28T03:53:24;98643.31;;;16.24;100.00
77351;BME280;66420;50.246;14.320;2023-07-28T03:56:08;98642.16;;;16.25;100.00
77351;BME280;66420;50.246;14.320;2023-07-28T03:58:53;98643.69;;;16.22;100.00
77351;BME280;66420;50.246;14.320;2023-07-28T04:01:38;98636.19;;;16.23;100.00
77351;BME280;66420;50.246;14.320;2023-07-28T04:04:24;98639.41;;;16.25;100.00
77351;BME280;66420;50.246;14.320;2023-07-28T04:07:09;98645.72;;;16.25;100.00
77351;BME280;66420;50.246;14.320;2023-07-28T04:09:53;98642.91;;;16.22;100.00
77351;BME280;66420;50.246;14.320;2023-07-28T04:12:38;98647.34;;;16.26;100.00
77351;BME280;66420;50.246;14.320;2023-07-28T04:15:22;98637.06;;;16.27;100.00
77351;BME280;66420;50.246;14.320;2023-07-28T04:18:07;98638.66;;;16.28;100.00
77351;BME280;66420;50.246;14.320;2023-07-28T04:20:52;98633.44;;;16.23;100.00
77351;BME280;66420;50.246;14.320;2023-07-28T04:23:37;98640.91;;;16.22;100.00
77351;BME280;66420;50.246;14.320;2023-07-28T04:26:24;98646.53;;;16.26;100.00
77351;BME280;66420;50.246;14.320;2023-07-28T04:29:09;98642.53;;;16.23;100.00
77351;BME280;66420;50.246;14.320;2023-07-28T04:31:53;98649.28;;;16.26;100.00
77351;BME280;66420;50.246;14.320;2023-07-28T04:34:39;98644.94;;;16.25;100.00
77351;BME280;66420;50.246;14.320;2023-07-28T04:37:24;98655.22;;;16.28;100.00
77351;BME280;66420;50.246;14.320;2023-07-28T04:40:09;98655.22;;;16.28;100.00
77351;BME280;66420;50.246;14.320;2023-07-28T04:42:54;98651.66;;;16.27;100.00
77351;BME280;66420;50.246;14.320;2023-07-28T04:45:38;98656.81;;;16.29;100.00
77351;BME280;66420;50.246;14.320;2023-07-28T04:48:23;98650.88;;;16.27;100.00
77351;BME280;66420;50.246;14.320;2023-07-28T04:51:08;98651.59;;;16.24;100.00
77351;BME280;66420;50.246;14.320;2023-07-28T04:53:53;98658.72;;;16.25;100.00
77351;BME280;66420;50.246;14.320;2023-07-28T04:56:38;98660.69;;;16.24;100.00
77351;BME280;66420;50.246;14.320;2023-07-28T04:59:22;98653.28;;;16.28;100.00
77351;BME280;66420;50.246;14.320;2023-07-28T05:02:08;98655.22;;;16.28;100.00
77351;BME280;66420;50.246;14.320;2023-07-28T05:04:52;98660.03;;;16.31;100.00
77351;BME280;66420;50.246;14.320;2023-07-28T05:07:37;98663.16;;;16.29;100.00
77351;BME280;66420;50.246;14.320;2023-07-28T05:10:21;98669.47;;;16.30;100.00
77351;BME280;66420;50.246;14.320;2023-07-28T05:13:06;98669.47;;;16.30;100.00
77351;BME280;66420;50.246;14.320;2023-07-28T05:15:50;98677.47;;;16.35;100.00
77351;BME280;66420;50.246;14.320;2023-07-28T05:18:35;98681.03;;;16.35;100.00
77351;BME280;66420;50.246;14.320;2023-07-28T05:21:21;98670.34;;;16.34;100.00
77351;BME280;66420;50.246;14.320;2023-07-28T05:24:06;98675.06;;;16.33;100.00
77351;BME280;66420;50.246;14.320;2023-07-28T05:26:51;98686.16;;;16.37;100.00
77351;BME280;66420;50.246;14.320;2023-07-28T05:29:36;98694.06;;;16.38;100.00
77351;BME280;66420;50.246;14.320;2023-07-28T05:32:21;98694.53;;;16.40;100.00
77351;BME280;66420;50.246;14.320;2023-07-28T05:35:06;98687.09;;;16.45;100.00
77351;BME280;66420;50.246;14.320;2023-07-28T05:37:51;98683.22;;;16.49;100.00
77351;BME280;66420;50.246;14.320;2023-07-28T05:40:35;98689.59;;;16.53;100.00
77351;BME280;66420;50.246;14.320;2023-07-28T05:43:20;98691.56;;;16.53;100.00
77351;BME280;66420;50.246;14.320;2023-07-28T05:46:05;98688.84;;;16.56;100.00
77351;BME280;66420;50.246;14.320;2023-07-28T05:48:49;98698.41;;;16.59;100.00
77351;BME280;66420;50.246;14.320;2023-07-28T05:51:34;98702.84;;;16.63;100.00
77351;BME280;66420;50.246;14.320;2023-07-28T05:54:18;98699.31;;;16.66;100.00
77351;BME280;66420;50.246;14.320;2023-07-28T05:57:03;98700.19;;;16.70;100.00
77351;BME280;66420;50.246;14.320;2023-07-28T05:59:48;98709.75;;;16.76;100.00
77351;BME280;66420;50.246;14.320;2023-07-28T06:02:33;98705.81;;;16.77;100.00
77351;BME280;66420;50.246;14.320;2023-07-28T06:05:17;98705.94;;;16.84;100.00
77351;BME280;66420;50.246;14.320;2023-07-28T06:08:02;98707.59;;;16.89;100.00
77351;BME280;66420;50.246;14.320;2023-07-28T06:10:47;98708.78;;;16.92;100.00
77351;BME280;66420;50.246;14.320;2023-07-28T06:13:32;98709.66;;;16.96;100.00
77351;BME280;66420;50.246;14.320;2023-07-28T06:16:16;98709.28;;;16.97;100.00
77351;BME280;66420;50.246;14.320;2023-07-28T06:19:01;98714.00;;;16.97;100.00
77351;BME280;66420;50.246;14.320;2023-07-28T06:21:46;98712.84;;;16.98;100.00
77351;BME280;66420;50.246;14.320;2023-07-28T06:24:31;98715.31;;;17.03;100.00
77351;BME280;66420;50.246;14.320;2023-07-28T06:27:16;98708.59;;;17.04;100.00
77351;BME280;66420;50.246;14.320;2023-07-28T06:30:01;98717.31;;;17.06;100.00
77351;BME280;66420;50.246;14.320;2023-07-28T06:32:46;98727.66;;;17.09;100.00
77351;BME280;66420;50.246;14.320;2023-07-28T06:35:30;98733.22;;;17.12;100.00
77351;BME280;66420;50.246;14.320;2023-07-28T06:38:16;98729.28;;;17.13;100.00
77351;BME280;66420;50.246;14.320;2023-07-28T06:41:01;98728.19;;;17.18;100.00
77351;BME280;66420;50.246;14.320;2023-07-28T06:43:46;98730.19;;;17.21;100.00
77351;BME280;66420;50.246;14.320;2023-07-28T06:46:32;98734.25;;;17.27;100.00
77351;BME280;66420;50.246;14.320;2023-07-28T06:49:18;98740.63;;;17.31;100.00
77351;BME280;66420;50.246;14.320;2023-07-28T06:52:03;98736.34;;;17.37;100.00
77351;BME280;66420;50.246;14.320;2023-07-28T06:54:48;98732.94;;;17.47;100.00
77351;BME280;66420;50.246;14.320;2023-07-28T06:57:33;98743.31;;;17.54;100.00
77351;BME280;66420;50.246;14.320;2023-07-28T07:00:19;98746.91;;;17.58;100.00
77351;BME280;66420;50.246;14.320;2023-07-28T07:03:04;98760.03;;;17.61;100.00
77351;BME280;66420;50.246;14.320;2023-07-28T07:05:49;98765.19;;;17.62;100.00
77351;BME280;66420;50.246;14.320;2023-07-28T07:08:33;98764.97;;;17.75;100.00
77351;BME280;66420;50.246;14.320;2023-07-28T07:11:18;98762.25;;;17.78;100.00
77351;BME280;66420;50.246;14.320;2023-07-28T07:14:03;98766.88;;;18.00;100.00
77351;BME280;66420;50.246;14.320;2023-07-28T07:16:49;98761.56;;;18.18;98.70
77351;BME280;66420;50.246;14.320;2023-07-28T07:19:34;98760.19;;;18.38;100.00
77351;BME280;66420;50.246;14.320;2023-07-28T07:22:18;98757.00;;;18.36;99.15
77351;BME280;66420;50.246;14.320;2023-07-28T07:25:04;98760.94;;;18.35;98.21
77351;BME280;66420;50.246;14.320;2023-07-28T07:27:49;98768.13;;;18.40;98.53
77351;BME280;66420;50.246;14.320;2023-07-28T07:30:33;98762.63;;;18.47;98.32
77351;BME280;66420;50.246;14.320;2023-07-28T07:33:18;98765.16;;;18.55;96.89
77351;BME280;66420;50.246;14.320;2023-07-28T07:36:03;98767.63;;;18.68;98.02
77351;BME280;66420;50.246;14.320;2023-07-28T07:38:48;98756.59;;;18.71;97.59
77351;BME280;66420;50.246;14.320;2023-07-28T07:41:33;98762.16;;;18.75;97.66
77351;BME280;66420;50.246;14.320;2023-07-28T07:44:18;98762.22;;;18.82;94.21
77351;BME280;66420;50.246;14.320;2023-07-28T07:47:14;98771.06;;;18.94;95.24
77351;BME280;66420;50.246;14.320;2023-07-28T07:50:00;98765.53;;;18.98;93.95
77351;BME280;66420;50.246;14.320;2023-07-28T07:52:45;98769.91;;;18.99;93.79
77351;BME280;66420;50.246;14.320;2023-07-28T07:55:30;98762.94;;;19.19;94.25
77351;BME280;66420;50.246;14.320;2023-07-28T07:58:15;98758.13;;;19.16;92.14
77351;BME280;66420;50.246;14.320;2023-07-28T08:01:00;98768.94;;;19.28;93.73
77351;BME280;66420;50.246;14.320;2023-07-28T08:03:45;98765.41;;;19.31;92.09
77351;BME280;66420;50.246;14.320;2023-07-28T08:06:29;98762.38;;;19.51;92.16
77351;BME280;66420;50.246;14.320;2023-07-28T08:09:14;98761.75;;;19.75;90.93
77351;BME280;66420;50.246;14.320;2023-07-28T08:11:59;98762.56;;;19.82;89.21
77351;BME280;66420;50.246;14.320;2023-07-28T08:14:44;98757.81;;;19.83;87.61
77351;BME280;66420;50.246;14.320;2023-07-28T08:17:30;98755.47;;;19.96;88.27
77351;BME280;66420;50.246;14.320;2023-07-28T08:20:15;98758.31;;;20.06;88.45
77351;BME280;66420;50.246;14.320;2023-07-28T08:23:00;98765.47;;;20.11;88.40
77351;BME280;66420;50.246;14.320;2023-07-28T08:25:45;98764.66;;;20.14;87.07
77351;BME280;66420;50.246;14.320;2023-07-28T08:28:29;98765.47;;;20.11;85.66
77351;BME280;66420;50.246;14.320;2023-07-28T08:31:14;98763.13;;;20.20;83.21
77351;BME280;66420;50.246;14.320;2023-07-28T08:33:59;98763.50;;;20.11;84.61
77351;BME280;66420;50.246;14.320;2023-07-28T08:36:44;98766.28;;;20.15;84.43
77351;BME280;66420;50.246;14.320;2023-07-28T08:39:29;98767.03;;;20.05;85.53
77351;BME280;66420;50.246;14.320;2023-07-28T08:42:14;98773.31;;;19.91;85.28
77351;BME280;66420;50.246;14.320;2023-07-28T08:45:00;98778.13;;;19.98;85.96
77351;BME280;66420;50.246;14.320;2023-07-28T08:47:44;98776.88;;;19.91;85.67
77351;BME280;66420;50.246;14.320;2023-07-28T08:50:30;98774.91;;;19.92;85.19
77351;BME280;66420;50.246;14.320;2023-07-28T08:53:16;98772.44;;;19.80;83.69
77351;BME280;66420;50.246;14.320;2023-07-28T08:56:01;98781.69;;;19.98;85.33
77351;BME280;66420;50.246;14.320;2023-07-28T08:58:46;98781.72;;;20.05;84.64
77351;BME280;66420;50.246;14.320;2023-07-28T09:01:31;98779.34;;;20.07;84.89
77351;BME280;66420;50.246;14.320;2023-07-28T09:04:16;98767.44;;;20.10;84.55
77351;BME280;66420;50.246;14.320;2023-07-28T09:07:04;98780.59;;;20.20;83.95
77351;BME280;66420;50.246;14.320;2023-07-28T09:09:49;98775.88;;;20.31;84.68
77351;BME280;66420;50.246;14.320;2023-07-28T09:12:33;98778.72;;;20.53;84.04
77351;BME280;66420;50.246;14.320;2023-07-28T09:15:18;98777.53;;;20.54;83.68
77351;BME280;66420;50.246;14.320;2023-07-28T09:18:03;98774.78;;;20.75;83.18
77351;BME280;66420;50.246;14.320;2023-07-28T09:20:48;98774.38;;;20.69;82.81
77351;BME280;66420;50.246;14.320;2023-07-28T09:23:33;98769.63;;;20.77;81.80
77351;BME280;66420;50.246;14.320;2023-07-28T09:26:18;98781.56;;;20.99;82.00
77351;BME280;66420;50.246;14.320;2023-07-28T09:29:13;98780.81;;;21.16;81.04
77351;BME280;66420;50.246;14.320;2023-07-28T09:32:06;98773.63;;;21.40;79.07
77351;BME280;66420;50.246;14.320;2023-07-28T09:35:05;98774.78;;;21.56;79.28
77351;BME280;66420;50.246;14.320;2023-07-28T09:37:51;98774.78;;;21.56;79.75
77351;BME280;66420;50.246;14.320;2023-07-28T09:40:37;98771.22;;;21.56;77.63
77351;BME280;66420;50.246;14.320;2023-07-28T09:43:22;98773.53;;;21.89;75.90
77351;BME280;66420;50.246;14.320;2023-07-28T09:46:08;98767.97;;;21.86;76.84
77351;BME280;66420;50.246;14.320;2023-07-28T09:48:56;98768.31;;;21.91;75.96
77351;BME280;66420;50.246;14.320;2023-07-28T09:51:46;98768.38;;;21.77;74.90
77351;BME280;66420;50.246;14.320;2023-07-28T09:54:39;98765.53;;;21.91;75.51
77351;BME280;66420;50.246;14.320;2023-07-28T09:57:25;98763.09;;;22.15;75.42
77351;BME280;66420;50.246;14.320;2023-07-28T10:00:13;98763.88;;;22.19;74.54
77351;BME280;66420;50.246;14.320;2023-07-28T10:03:02;98765.50;;;22.13;74.44
77351;BME280;66420;50.246;14.320;2023-07-28T10:05:47;98766.28;;;22.09;74.52
77351;BME280;66420;50.246;14.320;2023-07-28T10:08:32;98765.50;;;22.05;71.88
77351;BME280;66420;50.246;14.320;2023-07-28T10:11:17;98769.91;;;21.92;71.70
77351;BME280;66420;50.246;14.320;2023-07-28T10:14:03;98767.94;;;22.03;71.50
77351;BME280;66420;50.246;14.320;2023-07-28T10:16:48;98771.13;;;21.98;70.30
77351;BME280;66420;50.246;14.320;2023-07-28T10:19:36;98775.84;;;22.16;70.49
77351;BME280;66420;50.246;14.320;2023-07-28T10:22:20;98778.88;;;22.42;70.12
77351;BME280;66420;50.246;14.320;2023-07-28T10:25:06;98785.56;;;22.55;70.34
77351;BME280;66420;50.246;14.320;2023-07-28T10:27:53;98791.59;;;22.47;68.81
77351;BME280;66420;50.246;14.320;2023-07-28T10:30:51;98786.00;;;22.50;68.83
77351;BME280;66420;50.246;14.320;2023-07-28T10:33:38;98780.44;;;22.50;67.62
77351;BME280;66420;50.246;14.320;2023-07-28T10:39:17;98803.22;;;22.35;68.98
77351;BME280;66420;50.246;14.320;2023-07-28T10:42:03;98790.88;;;22.32;68.42
77351;BME280;66420;50.246;14.320;2023-07-28T10:44:48;98794.81;;;22.42;68.80
77351;BME280;66420;50.246;14.320;2023-07-28T10:47:33;98797.09;;;22.61;67.91
77351;BME280;66420;50.246;14.320;2023-07-28T10:50:18;98797.09;;;22.61;67.73
77351;BME280;66420;50.246;14.320;2023-07-28T10:53:03;98801.00;;;22.78;67.87
77351;BME280;66420;50.246;14.320;2023-07-28T10:55:48;98788.00;;;23.12;67.10
77351;BME280;66420;50.246;14.320;2023-07-28T10:58:33;98793.13;;;23.21;64.45
77351;BME280;66420;50.246;14.320;2023-07-28T11:01:20;98774.22;;;23.39;64.67
77351;BME280;66420;50.246;14.320;2023-07-28T11:06:51;98791.25;;;23.55;63.93
77351;BME280;66420;50.246;14.320;2023-07-28T11:09:36;98795.13;;;23.65;62.92
77351;BME280;66420;50.246;14.320;2023-07-28T11:12:21;98797.03;;;23.78;63.26
77351;BME280;66420;50.246;14.320;2023-07-28T11:15:08;98787.94;;;24.05;62.69
77351;BME280;66420;50.246;14.320;2023-07-28T11:17:55;98789.09;;;24.07;63.30
77351;BME280;66420;50.246;14.320;2023-07-28T11:20:39;98787.41;;;24.17;61.32
77351;BME280;66420;50.246;14.320;2023-07-28T11:23:25;98790.69;;;24.42;60.99
77351;BME280;66420;50.246;14.320;2023-07-28T11:26:10;98782.31;;;24.39;62.01
77351;BME280;66420;50.246;14.320;2023-07-28T11:28:56;98778.66;;;24.45;59.57
77351;BME280;66420;50.246;14.320;2023-07-28T11:31:42;98778.66;;;24.72;60.55
77351;BME280;66420;50.246;14.320;2023-07-28T11:34:26;98773.81;;;24.76;58.59
77351;BME280;66420;50.246;14.320;2023-07-28T11:37:11;98770.66;;;24.44;59.83
77351;BME280;66420;50.246;14.320;2023-07-28T11:39:57;98774.31;;;24.41;59.32
77351;BME280;66420;50.246;14.320;2023-07-28T11:42:45;98764.66;;;24.72;57.22
77351;BME280;66420;50.246;14.320;2023-07-28T11:45:30;98771.41;;;25.05;57.43
77351;BME280;66420;50.246;14.320;2023-07-28T11:48:16;98770.31;;;25.22;57.26
77351;BME280;66420;50.246;14.320;2023-07-28T11:51:02;98774.31;;;25.44;56.00
77351;BME280;66420;50.246;14.320;2023-07-28T11:53:47;98771.03;;;25.26;55.75
77351;BME280;66420;50.246;14.320;2023-07-28T11:56:31;98768.22;;;25.49;56.95
77351;BME280;66420;50.246;14.320;2023-07-28T11:59:19;98763.84;;;25.91;55.75
77351;BME280;66420;50.246;14.320;2023-07-28T12:02:05;98773.84;;;25.92;53.70
77351;BME280;66420;50.246;14.320;2023-07-28T12:04:49;98767.38;;;25.52;52.58
77351;BME280;66420;50.246;14.320;2023-07-28T12:07:35;98769.44;;;25.72;53.50
77351;BME280;66420;50.246;14.320;2023-07-28T12:10:20;98761.41;;;25.74;52.94
77351;BME280;66420;50.246;14.320;2023-07-28T12:13:06;98755.31;;;25.98;52.60
77351;BME280;66420;50.246;14.320;2023-07-28T12:15:51;98771.94;;;26.29;51.60
77351;BME280;66420;50.246;14.320;2023-07-28T12:18:36;98767.56;;;25.85;50.37
77351;BME280;66420;50.246;14.320;2023-07-28T12:21:21;98769.97;;;25.86;50.36
77351;BME280;66420;50.246;14.320;2023-07-28T12:24:06;98763.28;;;26.00;51.18
77351;BME280;66420;50.246;14.320;2023-07-28T12:26:51;98764.50;;;26.19;50.52
77351;BME280;66420;50.246;14.320;2023-07-28T12:29:35;98765.44;;;26.52;53.42
77351;BME280;66420;50.246;14.320;2023-07-28T12:32:20;98758.78;;;26.26;53.08
77351;BME280;66420;50.246;14.320;2023-07-28T12:35:05;98771.16;;;26.28;51.01
77351;BME280;66420;50.246;14.320;2023-07-28T12:37:50;98762.41;;;26.42;50.21
77351;BME280;66420;50.246;14.320;2023-07-28T12:40:35;98761.00;;;26.34;52.12
77351;BME280;66420;50.246;14.320;2023-07-28T12:43:20;98759.75;;;26.35;51.36
77351;BME280;66420;50.246;14.320;2023-07-28T12:46:05;98766.75;;;26.27;50.06
77351;BME280;66420;50.246;14.320;2023-07-28T12:48:49;98758.09;;;25.79;50.66
77351;BME280;66420;50.246;14.320;2023-07-28T12:51:34;98758.41;;;25.84;50.18
77351;BME280;66420;50.246;14.320;2023-07-28T12:54:19;98748.63;;;26.12;51.68
77351;BME280;66420;50.246;14.320;2023-07-28T12:57:04;98751.06;;;25.71;50.36
77351;BME280;66420;50.246;14.320;2023-07-28T12:59:49;98754.25;;;26.12;51.04
77351;BME280;66420;50.246;14.320;2023-07-28T13:02:33;98763.09;;;26.30;51.42
77351;BME280;66420;50.246;14.320;2023-07-28T13:05:17;98758.53;;;26.36;50.46
77351;BME280;66420;50.246;14.320;2023-07-28T13:08:02;98764.06;;;26.00;51.36
77351;BME280;66420;50.246;14.320;2023-07-28T13:10:47;98756.09;;;25.99;50.02
77351;BME280;66420;50.246;14.320;2023-07-28T13:13:31;98766.81;;;26.43;51.08
77351;BME280;66420;50.246;14.320;2023-07-28T13:16:18;98766.31;;;26.49;51.05
77351;BME280;66420;50.246;14.320;2023-07-28T13:19:02;98768.78;;;26.63;49.24
77351;BME280;66420;50.246;14.320;2023-07-28T13:21:46;98769.25;;;26.41;48.42
77351;BME280;66420;50.246;14.320;2023-07-28T13:24:31;98769.34;;;26.38;49.46
77351;BME280;66420;50.246;14.320;2023-07-28T13:27:16;98772.47;;;26.60;49.67
77351;BME280;66420;50.246;14.320;2023-07-28T13:30:00;98773.63;;;26.78;49.49
77351;BME280;66420;50.246;14.320;2023-07-28T13:32:47;98776.38;;;26.46;50.35
77351;BME280;66420;50.246;14.320;2023-07-28T13:35:32;98764.91;;;26.57;50.65
77351;BME280;66420;50.246;14.320;2023-07-28T13:38:17;98767.56;;;25.85;50.52
77351;BME280;66420;50.246;14.320;2023-07-28T13:41:04;98765.88;;;25.91;51.12
77351;BME280;66420;50.246;14.320;2023-07-28T13:43:49;98759.09;;;26.08;50.72
77351;BME280;66420;50.246;14.320;2023-07-28T13:46:34;98764.16;;;26.36;50.17
77351;BME280;66420;50.246;14.320;2023-07-28T13:49:19;98763.31;;;26.39;48.88
77351;BME280;66420;50.246;14.320;2023-07-28T13:52:03;98765.94;;;26.46;49.16
77351;BME280;66420;50.246;14.320;2023-07-28T13:54:48;98766.44;;;26.41;49.82
77351;BME280;66420;50.246;14.320;2023-07-28T13:57:33;98774.13;;;26.18;49.97
77351;BME280;66420;50.246;14.320;2023-07-28T14:00:18;98770.75;;;25.87;49.85
77351;BME280;66420;50.246;14.320;2023-07-28T14:03:03;98771.56;;;25.87;50.41
77351;BME280;66420;50.246;14.320;2023-07-28T14:05:47;98766.75;;;26.08;48.67
77351;BME280;66420;50.246;14.320;2023-07-28T14:08:33;98765.28;;;26.19;49.72
77351;BME280;66420;50.246;14.320;2023-07-28T14:11:17;98762.13;;;26.37;48.88
77351;BME280;66420;50.246;14.320;2023-07-28T14:14:02;98757.69;;;26.39;48.46
77351;BME280;66420;50.246;14.320;2023-07-28T14:16:47;98764.16;;;26.36;48.80
77351;BME280;66420;50.246;14.320;2023-07-28T14:19:31;98758.72;;;26.29;48.36
77351;BME280;66420;50.246;14.320;2023-07-28T14:22:16;98760.91;;;26.38;49.16
77351;BME280;66420;50.246;14.320;2023-07-28T14:25:01;98764.41;;;26.62;51.66
77351;BME280;66420;50.246;14.320;2023-07-28T14:27:45;98763.13;;;26.46;50.30
77351;BME280;66420;50.246;14.320;2023-07-28T14:30:30;98764.03;;;26.60;49.68